createdAt,value
2022-10-11T00:02:20.179Z,6.40
2022-10-11T00:04:47.311Z,6.40
2022-10-11T00:07:14.467Z,6.30
2022-10-11T00:09:41.516Z,6.30
2022-10-11T00:12:08.766Z,6.30
2022-10-11T00:14:35.984Z,6.30
2022-10-11T00:17:03.106Z,6.30
2022-10-11T00:19:30.121Z,6.20
2022-10-11T00:21:57.188Z,6.20
2022-10-11T00:24:24.320Z,6.30
2022-10-11T00:26:51.400Z,6.30
2022-10-11T00:29:18.468Z,6.30
2022-10-11T00:31:45.592Z,6.30
2022-10-11T00:34:13.422Z,6.30
2022-10-11T00:36:40.582Z,6.30
2022-10-11T00:39:07.633Z,6.40
2022-10-11T00:41:34.773Z,6.50
2022-10-11T00:44:22.980Z,6.60
2022-10-11T00:47:12.219Z,6.70
2022-10-11T00:49:55.524Z,6.80
2022-10-11T00:52:33.213Z,6.80
2022-10-11T00:55:05.054Z,6.90
2022-10-11T00:57:37.074Z,6.90
2022-10-11T01:00:07.716Z,6.90
2022-10-11T01:02:35.065Z,6.90
2022-10-11T01:05:27.538Z,6.90
2022-10-11T01:07:51.468Z,6.90
2022-10-11T01:10:19.614Z,7.00
2022-10-11T01:13:21.526Z,7.00
2022-10-11T01:16:08.907Z,7.10
2022-10-11T01:18:52.601Z,7.20
2022-10-11T01:21:47.657Z,7.20
2022-10-11T01:24:39.617Z,7.20
2022-10-11T01:27:37.259Z,7.30
2022-10-11T01:30:20.901Z,7.30
2022-10-11T01:32:57.652Z,7.30
2022-10-11T01:35:50.624Z,7.20
2022-10-11T01:38:30.348Z,7.30
2022-10-11T01:41:04.234Z,7.30
2022-10-11T01:43:32.725Z,7.30
2022-10-11T01:46:02.364Z,7.30
2022-10-11T01:48:29.881Z,7.30
2022-10-11T01:50:58.893Z,7.40
2022-10-11T01:53:38.326Z,7.40
2022-10-11T01:56:20.496Z,7.40
2022-10-11T01:59:06.017Z,7.40
2022-10-11T02:01:47.578Z,7.40
2022-10-11T02:04:40.831Z,7.30
2022-10-11T02:07:21.705Z,7.30
2022-10-11T02:09:58.531Z,7.40
2022-10-11T02:12:37.821Z,7.40
2022-10-11T02:15:09.421Z,7.40
2022-10-11T02:17:50.189Z,7.40
2022-10-11T02:20:23.464Z,7.40
2022-10-11T02:22:56.309Z,7.40
2022-10-11T02:25:27.142Z,7.40
2022-10-11T02:27:59.397Z,7.40
2022-10-11T02:30:26.609Z,7.40
2022-10-11T02:32:56.010Z,7.50
2022-10-11T02:35:27.449Z,7.50
2022-10-11T02:38:02.924Z,7.50
2022-10-11T02:40:35.297Z,7.50
2022-10-11T02:43:13.466Z,7.50
2022-10-11T02:46:10.562Z,7.60
2022-10-11T02:48:38.393Z,7.60
2022-10-11T02:51:05.692Z,7.60
2022-10-11T02:53:33.031Z,7.60
2022-10-11T02:56:00.028Z,7.60
2022-10-11T02:58:27.184Z,7.60
2022-10-11T03:00:54.257Z,7.60
2022-10-11T03:03:21.345Z,7.60
2022-10-11T03:05:48.388Z,7.60
2022-10-11T03:08:16.669Z,7.60
2022-10-11T03:10:44.352Z,7.60
2022-10-11T03:13:14.897Z,7.60
2022-10-11T03:16:02.345Z,7.70
2022-10-11T03:18:30.842Z,7.70
2022-10-11T03:20:57.872Z,7.70
2022-10-11T03:23:24.914Z,7.60
2022-10-11T03:25:52.258Z,7.60
2022-10-11T03:28:20.069Z,7.60
2022-10-11T03:30:48.872Z,7.60
2022-10-11T03:33:17.265Z,7.60
2022-10-11T03:35:45.761Z,7.60
2022-10-11T03:38:16.126Z,7.60
2022-10-11T03:40:44.045Z,7.60
2022-10-11T03:43:11.792Z,7.60
2022-10-11T03:45:39.270Z,7.60
2022-10-11T03:48:06.611Z,7.60
2022-10-11T03:50:33.901Z,7.60
2022-10-11T03:53:00.944Z,7.60
2022-10-11T03:55:28.109Z,7.70
2022-10-11T03:57:55.171Z,7.70
2022-10-11T04:00:22.349Z,7.70
2022-10-11T04:02:49.377Z,7.70
2022-10-11T04:05:16.695Z,7.70
2022-10-11T04:07:43.854Z,7.70
2022-10-11T04:10:10.956Z,7.70
2022-10-11T04:12:39.186Z,7.70
2022-10-11T04:15:07.585Z,7.70
2022-10-11T04:17:34.617Z,7.70
2022-10-11T04:20:01.733Z,7.60
2022-10-11T04:22:28.888Z,7.60
2022-10-11T04:24:55.971Z,7.60
2022-10-11T04:27:23.017Z,7.60
2022-10-11T04:29:50.144Z,7.60
2022-10-11T04:32:17.248Z,7.60
2022-10-11T04:34:44.351Z,7.60
2022-10-11T04:37:11.544Z,7.60
2022-10-11T04:39:38.753Z,7.60
2022-10-11T04:42:05.904Z,7.60
2022-10-11T04:44:32.993Z,7.60
2022-10-11T04:47:00.098Z,7.60
2022-10-11T04:49:27.309Z,7.70
2022-10-11T04:51:54.389Z,7.70
2022-10-11T04:54:21.490Z,7.70
2022-10-11T04:56:48.494Z,7.70
2022-10-11T04:59:15.630Z,7.70
2022-10-11T05:01:42.746Z,7.70
2022-10-11T05:04:09.923Z,7.70
2022-10-11T05:06:36.978Z,7.70
2022-10-11T05:09:04.172Z,7.70
2022-10-11T05:11:31.340Z,7.70
2022-10-11T05:13:58.502Z,7.70
2022-10-11T05:16:25.565Z,7.70
2022-10-11T05:18:52.769Z,7.70
2022-10-11T05:21:22.451Z,7.80
2022-10-11T05:23:50.663Z,7.80
2022-10-11T05:26:19.186Z,7.80
2022-10-11T05:28:47.224Z,7.80
2022-10-11T05:31:14.708Z,7.80
2022-10-11T05:33:42.394Z,7.80
2022-10-11T05:36:10.084Z,7.80
2022-10-11T05:38:38.270Z,7.80
2022-10-11T05:41:07.053Z,7.80
2022-10-11T05:43:34.088Z,7.80
2022-10-11T05:46:01.099Z,7.80
2022-10-11T05:48:28.700Z,7.90
2022-10-11T05:51:00.605Z,7.90
2022-10-11T05:53:27.734Z,8.00
2022-10-11T05:55:54.895Z,8.00
2022-10-11T05:58:22.305Z,8.00
2022-10-11T06:00:49.465Z,8.00
2022-10-11T06:03:17.280Z,8.00
2022-10-11T06:05:44.281Z,8.00
2022-10-11T06:08:11.388Z,8.00
2022-10-11T06:10:38.907Z,8.10
2022-10-11T06:13:06.739Z,8.00
2022-10-11T06:15:34.515Z,8.00
2022-10-11T06:18:01.681Z,8.10
2022-10-11T06:20:28.802Z,8.10
2022-10-11T06:22:55.996Z,8.10
2022-10-11T06:25:23.258Z,8.10
2022-10-11T06:27:50.589Z,8.20
2022-10-11T06:30:18.380Z,8.20
2022-10-11T06:32:45.428Z,8.20
2022-10-11T06:35:13.380Z,8.20
2022-10-11T06:37:40.830Z,8.30
2022-10-11T06:40:08.282Z,8.30
2022-10-11T06:42:35.401Z,8.30
2022-10-11T06:45:03.887Z,8.30
2022-10-11T06:47:30.970Z,8.40
2022-10-11T06:49:58.000Z,8.40
2022-10-11T06:52:25.239Z,8.50
2022-10-11T06:54:52.247Z,8.50
2022-10-11T06:57:19.671Z,8.50
2022-10-11T06:59:46.867Z,8.50
2022-10-11T07:02:29.930Z,8.50
2022-10-11T07:04:57.111Z,8.50
2022-10-11T07:07:24.121Z,8.50
2022-10-11T07:09:51.171Z,8.50
2022-10-11T07:12:18.549Z,8.50
2022-10-11T07:14:45.662Z,8.60
2022-10-11T07:17:12.723Z,8.70
2022-10-11T07:19:39.823Z,8.70
2022-10-11T07:22:06.860Z,8.70
2022-10-11T07:24:33.951Z,8.80
2022-10-11T07:27:00.969Z,8.90
2022-10-11T07:29:28.055Z,9.00
2022-10-11T07:31:55.079Z,9.00
2022-10-11T07:34:23.013Z,9.10
2022-10-11T07:36:50.045Z,9.10
2022-10-11T07:39:17.200Z,9.10
2022-10-11T07:41:46.045Z,9.10
2022-10-11T07:44:14.105Z,9.10
2022-10-11T07:46:41.158Z,9.10
2022-10-11T07:49:08.266Z,9.10
2022-10-11T07:51:35.318Z,9.10
2022-10-11T07:54:07.271Z,9.10
2022-10-11T07:56:35.229Z,9.20
2022-10-11T07:59:05.294Z,9.30
2022-10-11T08:01:33.061Z,9.30
2022-10-11T08:04:00.332Z,9.50
2022-10-11T08:06:31.831Z,9.60
2022-10-11T08:09:01.202Z,9.60
2022-10-11T08:11:33.272Z,9.60
2022-10-11T08:14:01.111Z,9.70
2022-10-11T08:16:28.377Z,9.70
2022-10-11T08:18:57.155Z,9.80
2022-10-11T08:21:24.886Z,9.90
2022-10-11T08:23:51.959Z,9.90
2022-10-11T08:26:19.193Z,10.00
2022-10-11T08:28:46.505Z,10.00
2022-10-11T08:31:16.169Z,10.00
2022-10-11T08:33:44.557Z,9.90
2022-10-11T08:36:15.285Z,9.90
2022-10-11T08:38:42.784Z,9.80
2022-10-11T08:41:27.920Z,9.90
2022-10-11T08:43:55.021Z,9.90
2022-10-11T08:46:28.555Z,10.00
2022-10-11T08:48:55.785Z,10.10
2022-10-11T08:51:33.870Z,10.20
2022-10-11T08:54:11.825Z,10.10
2022-10-11T08:56:40.143Z,10.20
2022-10-11T08:59:13.140Z,10.20
2022-10-11T09:02:21.557Z,10.20
2022-10-11T09:04:51.749Z,10.40
2022-10-11T09:07:24.482Z,10.50
2022-10-11T09:09:59.449Z,10.50
2022-10-11T09:12:41.314Z,10.60
2022-10-11T09:15:24.622Z,10.60
2022-10-11T09:18:29.242Z,10.60
2022-10-11T09:21:11.966Z,10.60
2022-10-11T09:23:53.386Z,10.60
2022-10-11T09:26:31.872Z,10.60
2022-10-11T09:29:15.794Z,10.70
2022-10-11T09:31:49.474Z,10.70
2022-10-11T09:34:16.640Z,10.80
2022-10-11T09:37:14.407Z,10.90
2022-10-11T09:40:03.581Z,11.20
2022-10-11T09:42:30.866Z,11.50
2022-10-11T09:45:00.144Z,11.50
2022-10-11T09:47:29.685Z,11.60
2022-10-11T09:50:04.835Z,11.70
2022-10-11T09:52:32.851Z,11.80
2022-10-11T09:55:02.321Z,11.90
2022-10-11T09:57:36.039Z,12.00
2022-10-11T10:00:24.558Z,12.10
2022-10-11T10:02:57.635Z,12.30
2022-10-11T10:05:33.893Z,12.30
2022-10-11T10:08:09.424Z,12.30
2022-10-11T10:10:41.059Z,12.20
2022-10-11T10:13:25.904Z,12.20
2022-10-11T10:15:56.619Z,12.20
2022-10-11T10:18:26.090Z,12.30
2022-10-11T10:20:55.988Z,12.20
2022-10-11T10:23:37.886Z,12.20
2022-10-11T10:26:25.696Z,12.20
2022-10-11T10:28:57.732Z,12.20
2022-10-11T10:31:55.260Z,12.10
2022-10-11T10:34:30.357Z,12.20
2022-10-11T10:37:09.565Z,12.20
2022-10-11T10:39:49.567Z,12.10
2022-10-11T10:42:19.871Z,12.10
2022-10-11T10:44:57.105Z,12.10
2022-10-11T10:47:47.867Z,12.10
2022-10-11T10:50:31.902Z,12.10
2022-10-11T10:53:11.081Z,12.10
2022-10-11T10:55:42.527Z,12.10
2022-10-11T10:58:28.397Z,12.00
2022-10-11T11:01:23.397Z,12.00
2022-10-11T11:04:25.580Z,12.20
2022-10-11T11:06:59.837Z,12.20
2022-10-11T11:09:48.198Z,12.30
2022-10-11T11:12:48.510Z,12.30
2022-10-11T11:15:19.864Z,12.40
2022-10-11T11:18:26.057Z,12.60
2022-10-11T11:21:08.165Z,12.80
2022-10-11T11:23:52.268Z,13.00
2022-10-11T11:26:35.579Z,12.80
2022-10-11T11:29:21.125Z,12.70
2022-10-11T11:32:07.173Z,12.60
2022-10-11T11:34:46.174Z,12.70
2022-10-11T11:37:23.053Z,12.80
2022-10-11T11:39:54.317Z,13.00
2022-10-11T11:42:43.327Z,13.40
2022-10-11T11:45:27.899Z,13.80
2022-10-11T11:48:05.574Z,14.00
2022-10-11T11:50:40.430Z,13.90
2022-10-11T11:53:17.819Z,13.70
2022-10-11T11:56:01.681Z,13.50
2022-10-11T11:58:38.743Z,13.40
2022-10-11T12:01:47.261Z,13.40
2022-10-11T12:04:25.929Z,13.30
2022-10-11T12:07:15.925Z,13.20
2022-10-11T12:09:46.582Z,13.10
2022-10-11T12:12:27.608Z,13.00
2022-10-11T12:15:10.238Z,13.00
2022-10-11T12:17:58.372Z,12.90
2022-10-11T12:20:31.760Z,12.70
2022-10-11T12:23:01.337Z,12.60
2022-10-11T12:25:33.288Z,12.60
2022-10-11T12:28:07.424Z,12.50
2022-10-11T12:30:53.413Z,12.40
2022-10-11T12:33:24.673Z,12.40
2022-10-11T12:35:55.085Z,12.30
2022-10-11T12:38:25.652Z,12.30
2022-10-11T12:41:09.081Z,12.30
2022-10-11T12:44:21.957Z,12.20
2022-10-11T12:46:55.169Z,12.20
2022-10-11T12:49:40.878Z,12.10
2022-10-11T12:52:23.860Z,12.10
2022-10-11T12:55:05.542Z,12.10
2022-10-11T12:57:50.540Z,12.10
2022-10-11T13:00:31.710Z,12.20
2022-10-11T13:03:32.597Z,12.10
2022-10-11T13:06:10.098Z,12.10
2022-10-11T13:08:42.235Z,12.20
2022-10-11T13:11:16.067Z,12.20
2022-10-11T13:13:48.076Z,12.30
2022-10-11T13:16:18.399Z,12.40
2022-10-11T13:18:47.949Z,12.50
2022-10-11T13:21:27.054Z,12.60
2022-10-11T13:24:03.491Z,12.60
2022-10-11T13:26:31.901Z,12.60
2022-10-11T13:29:00.473Z,12.70
2022-10-11T13:31:28.504Z,12.70
2022-10-11T13:33:59.462Z,12.80
2022-10-11T13:36:27.649Z,12.70
2022-10-11T13:38:58.080Z,12.80
2022-10-11T13:41:29.023Z,12.80
2022-10-11T13:43:58.432Z,12.80
2022-10-11T13:46:27.994Z,12.70
2022-10-11T13:49:03.884Z,12.70
2022-10-11T13:51:37.230Z,12.60
2022-10-11T13:54:04.440Z,12.70
2022-10-11T13:56:52.854Z,12.60
2022-10-11T13:59:28.231Z,12.60
2022-10-11T14:02:00.304Z,12.60
2022-10-11T14:04:29.935Z,12.60
2022-10-11T14:07:02.862Z,12.70
2022-10-11T14:09:36.875Z,12.70
2022-10-11T14:12:44.387Z,12.70
2022-10-11T14:15:35.340Z,12.70
2022-10-11T14:18:33.685Z,12.70
2022-10-11T14:21:17.759Z,12.70
2022-10-11T14:23:45.828Z,12.80
2022-10-11T14:26:18.973Z,12.80
2022-10-11T14:28:51.955Z,12.80
2022-10-11T14:31:19.158Z,12.80
2022-10-11T14:33:46.303Z,12.90
2022-10-11T14:36:13.463Z,12.90
2022-10-11T14:38:40.467Z,13.00
2022-10-11T14:41:07.583Z,13.00
2022-10-11T14:43:34.606Z,13.10
2022-10-11T14:46:01.884Z,13.00
2022-10-11T14:48:53.567Z,13.10
2022-10-11T14:51:21.380Z,13.10
2022-10-11T14:53:49.260Z,13.10
2022-10-11T14:56:21.290Z,13.10
2022-10-11T14:58:48.969Z,13.10
2022-10-11T15:01:17.579Z,13.10
2022-10-11T15:03:44.686Z,13.00
2022-10-11T15:06:32.831Z,13.00
2022-10-11T15:09:00.511Z,13.00
2022-10-11T15:11:28.064Z,12.90
2022-10-11T15:13:55.222Z,12.80
2022-10-11T15:16:22.663Z,12.70
2022-10-11T15:18:51.971Z,12.60
2022-10-11T15:21:22.795Z,12.50
2022-10-11T15:23:51.887Z,12.40
2022-10-11T15:26:24.290Z,12.40
2022-10-11T15:28:52.152Z,12.40
2022-10-11T15:31:19.950Z,12.30
2022-10-11T15:33:47.560Z,12.30
2022-10-11T15:36:17.916Z,12.20
2022-10-11T15:38:45.914Z,12.20
2022-10-11T15:41:15.708Z,12.10
2022-10-11T15:43:44.508Z,12.10
2022-10-11T15:46:20.440Z,12.10
2022-10-11T15:48:48.631Z,12.00
2022-10-11T15:51:15.989Z,12.00
2022-10-11T15:53:43.258Z,11.90
2022-10-11T15:56:15.397Z,11.80
2022-10-11T15:59:12.104Z,11.80
2022-10-11T16:01:39.809Z,11.80
2022-10-11T16:04:06.863Z,11.70
2022-10-11T16:06:34.219Z,11.70
2022-10-11T16:09:01.570Z,11.70
2022-10-11T16:11:28.623Z,11.60
2022-10-11T16:13:55.639Z,11.60
2022-10-11T16:16:22.869Z,11.50
2022-10-11T16:18:50.998Z,11.50
2022-10-11T16:21:18.332Z,11.40
2022-10-11T16:23:45.362Z,11.40
2022-10-11T16:26:14.214Z,11.40
2022-10-11T16:28:42.193Z,11.40
2022-10-11T16:31:11.239Z,11.30
2022-10-11T16:33:45.820Z,11.30
2022-10-11T16:36:40.857Z,11.30
2022-10-11T16:39:18.565Z,11.30
2022-10-11T16:41:47.638Z,11.30
2022-10-11T16:44:17.707Z,11.30
2022-10-11T16:46:48.554Z,11.30
2022-10-11T16:49:17.944Z,11.20
2022-10-11T16:51:45.071Z,11.20
2022-10-11T16:54:14.637Z,11.20
2022-10-11T16:56:45.650Z,11.20
2022-10-11T16:59:13.294Z,11.20
2022-10-11T17:01:40.424Z,11.10
2022-10-11T17:04:07.877Z,11.10
2022-10-11T17:06:35.130Z,11.10
2022-10-11T17:09:02.497Z,11.00
2022-10-11T17:11:29.765Z,11.00
2022-10-11T17:13:57.228Z,11.00
2022-10-11T17:16:24.557Z,10.90
2022-10-11T17:18:51.990Z,10.90
2022-10-11T17:21:20.541Z,10.80
2022-10-11T17:23:51.224Z,10.80
2022-10-11T17:26:22.187Z,10.80
2022-10-11T17:28:49.514Z,10.80
2022-10-11T17:31:17.710Z,10.70
2022-10-11T17:33:45.007Z,10.70
2022-10-11T17:36:20.847Z,10.60
2022-10-11T17:38:49.358Z,10.60
2022-10-11T17:41:17.115Z,10.50
2022-10-11T17:43:44.266Z,10.50
2022-10-11T17:46:13.590Z,10.50
2022-10-11T17:48:41.506Z,10.40
2022-10-11T17:51:19.493Z,10.40
2022-10-11T17:53:53.381Z,10.40
2022-10-11T17:56:28.185Z,10.40
2022-10-11T17:58:58.243Z,10.40
2022-10-11T18:01:28.003Z,10.40
2022-10-11T18:03:58.532Z,10.40
2022-10-11T18:06:28.895Z,10.40
2022-10-11T18:08:59.230Z,10.40
2022-10-11T18:11:26.460Z,10.40
2022-10-11T18:13:53.824Z,10.40
2022-10-11T18:16:26.966Z,10.40
2022-10-11T18:18:55.212Z,10.30
2022-10-11T18:21:22.232Z,10.30
2022-10-11T18:23:49.336Z,10.40
2022-10-11T18:26:24.448Z,10.30
2022-10-11T18:28:55.972Z,10.40
2022-10-11T18:31:26.555Z,10.40
2022-10-11T18:33:54.411Z,10.40
2022-10-11T18:36:24.694Z,10.40
2022-10-11T18:38:58.011Z,10.50
2022-10-11T18:41:31.645Z,10.50
2022-10-11T18:44:01.582Z,10.50
2022-10-11T18:46:29.508Z,10.40
2022-10-11T18:48:58.352Z,10.40
2022-10-11T18:51:34.109Z,10.40
2022-10-11T18:54:01.850Z,10.40
2022-10-11T18:56:30.344Z,10.40
2022-10-11T18:58:59.579Z,10.40
2022-10-11T19:01:33.822Z,10.30
2022-10-11T19:04:02.526Z,10.40
2022-10-11T19:06:32.637Z,10.40
2022-10-11T19:09:02.778Z,10.30
2022-10-11T19:11:32.882Z,10.30
2022-10-11T19:14:07.197Z,10.30
2022-10-11T19:16:40.479Z,10.30
2022-10-11T19:19:09.557Z,10.20
2022-10-11T19:21:37.602Z,10.20
2022-10-11T19:24:05.227Z,10.20
2022-10-11T19:26:40.843Z,10.20
2022-10-11T19:29:11.051Z,10.20
2022-10-11T19:31:43.356Z,10.20
2022-10-11T19:34:10.616Z,10.20
2022-10-11T19:36:38.203Z,10.20
2022-10-11T19:39:06.253Z,10.20
2022-10-11T19:41:34.714Z,10.20
2022-10-11T19:44:02.144Z,10.20
2022-10-11T19:46:50.484Z,10.20
2022-10-11T19:49:20.328Z,10.20
2022-10-11T19:51:47.474Z,10.20
2022-10-11T19:54:15.254Z,10.20
2022-10-11T19:56:43.099Z,10.20
2022-10-11T19:59:11.345Z,10.20
2022-10-11T20:01:39.860Z,10.20
2022-10-11T20:04:09.154Z,10.20
2022-10-11T20:06:39.985Z,10.20
2022-10-11T20:09:28.654Z,10.20
2022-10-11T20:11:55.676Z,10.20
2022-10-11T20:14:22.751Z,10.10
2022-10-11T20:16:50.844Z,10.10
2022-10-11T20:19:18.854Z,10.00
2022-10-11T20:21:46.059Z,10.00
2022-10-11T20:24:13.319Z,10.00
2022-10-11T20:26:40.552Z,10.00
2022-10-11T20:29:07.792Z,9.90
2022-10-11T20:31:40.829Z,9.90
2022-10-11T20:34:10.192Z,9.90
2022-10-11T20:36:37.436Z,9.90
2022-10-11T20:39:06.006Z,9.90
2022-10-11T20:41:37.206Z,9.90
2022-10-11T20:44:05.404Z,9.80
2022-10-11T20:46:35.084Z,9.90
2022-10-11T20:49:06.030Z,9.80
2022-10-11T20:51:35.105Z,9.90
2022-10-11T20:54:04.268Z,9.90
2022-10-11T20:56:31.932Z,9.90
2022-10-11T20:58:59.406Z,10.00
2022-10-11T21:01:46.155Z,10.00
2022-10-11T21:04:18.967Z,10.00
2022-10-11T21:06:47.658Z,10.00
2022-10-11T21:09:16.968Z,10.00
2022-10-11T21:11:44.814Z,10.00
2022-10-11T21:14:12.116Z,10.00
2022-10-11T21:16:39.218Z,10.00
2022-10-11T21:19:06.433Z,10.00
2022-10-11T21:21:33.482Z,10.00
2022-10-11T21:24:01.927Z,10.00
2022-10-11T21:26:30.540Z,10.10
2022-10-11T21:28:59.486Z,10.00
2022-10-11T21:31:32.759Z,10.00
2022-10-11T21:34:01.422Z,10.00
2022-10-11T21:36:28.493Z,10.00
2022-10-11T21:38:56.243Z,10.00
2022-10-11T21:41:25.716Z,10.00
2022-10-11T21:43:53.520Z,10.00
2022-10-11T21:46:23.739Z,10.00
2022-10-11T21:48:52.373Z,10.00
2022-10-11T21:51:31.759Z,10.00
2022-10-11T21:54:02.642Z,10.00
2022-10-11T21:56:30.303Z,9.90
2022-10-11T21:58:57.575Z,9.90
2022-10-11T22:01:24.956Z,9.90
2022-10-11T22:03:53.592Z,9.90
2022-10-11T22:06:21.490Z,9.90
2022-10-11T22:08:50.104Z,9.90
2022-10-11T22:11:17.619Z,9.90
2022-10-11T22:13:45.177Z,9.90
2022-10-11T22:16:13.879Z,9.80
2022-10-11T22:18:42.295Z,9.80
2022-10-11T22:21:15.187Z,9.90
2022-10-11T22:23:45.269Z,9.80
2022-10-11T22:26:19.003Z,9.80
2022-10-11T22:28:48.951Z,9.80
2022-10-11T22:31:18.529Z,9.80
2022-10-11T22:33:46.221Z,9.90
2022-10-11T22:36:13.965Z,9.90
2022-10-11T22:38:42.843Z,9.80
2022-10-11T22:41:10.523Z,9.80
2022-10-11T22:43:37.635Z,9.80
2022-10-11T22:46:05.777Z,9.80
2022-10-11T22:48:32.846Z,9.80
2022-10-11T22:51:02.983Z,9.90
2022-10-11T22:53:30.740Z,9.90
2022-10-11T22:55:57.946Z,9.90
2022-10-11T22:58:25.270Z,9.90
2022-10-11T23:00:52.358Z,9.90
2022-10-11T23:03:20.052Z,9.90
2022-10-11T23:05:57.822Z,9.90
2022-10-11T23:08:26.319Z,9.90
2022-10-11T23:10:53.657Z,9.90
2022-10-11T23:13:21.325Z,9.90
2022-10-11T23:15:48.411Z,9.90
2022-10-11T23:18:16.857Z,9.90
2022-10-11T23:20:44.030Z,9.90
2022-10-11T23:23:11.220Z,9.80
2022-10-11T23:25:38.236Z,9.80
2022-10-11T23:28:05.611Z,9.80
2022-10-11T23:30:32.805Z,9.80
2022-10-11T23:33:00.029Z,9.80
2022-10-11T23:35:27.093Z,9.70
2022-10-11T23:37:54.923Z,9.70
2022-10-11T23:40:22.099Z,9.70
2022-10-11T23:42:49.239Z,9.70
2022-10-11T23:45:16.957Z,9.70
2022-10-11T23:47:44.054Z,9.70
2022-10-11T23:50:12.207Z,9.70
2022-10-11T23:52:39.281Z,9.80
2022-10-11T23:55:06.523Z,9.80
2022-10-11T23:57:33.963Z,9.80
